sensor_id;sensor_type;location;lat;lon;timestamp;temperature;humidity
5276;DHT22;2661;50.786;12.728;2022-10-26T00:01:19;7.70;99.90
5276;DHT22;2661;50.786;12.728;2022-10-26T00:03:45;7.70;99.90
5276;DHT22;2661;50.786;12.728;2022-10-26T00:06:16;7.60;99.90
5276;DHT22;2661;50.786;12.728;2022-10-26T00:08:44;7.60;99.90
5276;DHT22;2661;50.786;12.728;2022-10-26T00:11:11;7.70;99.90
5276;DHT22;2661;50.786;12.728;2022-10-26T00:13:38;7.60;99.90
5276;DHT22;2661;50.786;12.728;2022-10-26T00:16:15;7.50;95.60
5276;DHT22;2661;50.786;12.728;2022-10-26T00:18:42;7.40;99.90
5276;DHT22;2661;50.786;12.728;2022-10-26T00:21:09;7.40;99.90
5276;DHT22;2661;50.786;12.728;2022-10-26T00:23:36;7.40;99.90
5276;DHT22;2661;50.786;12.728;2022-10-26T00:26:02;7.60;99.90
5276;DHT22;2661;50.786;12.728;2022-10-26T00:28:29;7.50;99.90
5276;DHT22;2661;50.786;12.728;2022-10-26T00:30:59;7.50;99.90
5276;DHT22;2661;50.786;12.728;2022-10-26T00:33:25;7.50;99.90
5276;DHT22;2661;50.786;12.728;2022-10-26T00:35:53;7.50;99.90
5276;DHT22;2661;50.786;12.728;2022-10-26T00:38:19;7.50;99.90
5276;DHT22;2661;50.786;12.728;2022-10-26T00:40:46;7.60;99.90
5276;DHT22;2661;50.786;12.728;2022-10-26T00:43:14;7.60;99.90
5276;DHT22;2661;50.786;12.728;2022-10-26T00:45:41;7.60;99.90
5276;DHT22;2661;50.786;12.728;2022-10-26T00:48:12;7.60;99.90
5276;DHT22;2661;50.786;12.728;2022-10-26T00:50:41;7.50;99.90
5276;DHT22;2661;50.786;12.728;2022-10-26T00:53:09;7.50;99.90
5276;DHT22;2661;50.786;12.728;2022-10-26T00:55:37;7.50;99.90
5276;DHT22;2661;50.786;12.728;2022-10-26T00:58:05;7.50;97.40
5276;DHT22;2661;50.786;12.728;2022-10-26T01:00:32;7.50;99.90
5276;DHT22;2661;50.786;12.728;2022-10-26T01:03:00;7.50;99.90
5276;DHT22;2661;50.786;12.728;2022-10-26T01:05:50;7.50;99.10
5276;DHT22;2661;50.786;12.728;2022-10-26T01:08:19;7.50;99.60
5276;DHT22;2661;50.786;12.728;2022-10-26T01:10:46;7.50;98.30
5276;DHT22;2661;50.786;12.728;2022-10-26T01:13:13;7.50;99.90
5276;DHT22;2661;50.786;12.728;2022-10-26T01:15:55;7.50;99.90
5276;DHT22;2661;50.786;12.728;2022-10-26T01:21:09;7.50;99.90
5276;DHT22;2661;50.786;12.728;2022-10-26T01:23:56;7.50;99.90
5276;DHT22;2661;50.786;12.728;2022-10-26T01:31:45;7.40;90.10
5276;DHT22;2661;50.786;12.728;2022-10-26T01:34:19;7.40;99.90
5276;DHT22;2661;50.786;12.728;2022-10-26T01:36:57;7.30;99.90
5276;DHT22;2661;50.786;12.728;2022-10-26T01:39:32;7.30;96.00
5276;DHT22;2661;50.786;12.728;2022-10-26T01:42:02;7.30;99.90
5276;DHT22;2661;50.786;12.728;2022-10-26T01:44:32;7.30;89.40
5276;DHT22;2661;50.786;12.728;2022-10-26T02:19:37;7.10;99.90
5276;DHT22;2661;50.786;12.728;2022-10-26T02:22:18;7.10;99.90
5276;DHT22;2661;50.786;12.728;2022-10-26T02:24:46;7.10;99.90
5276;DHT22;2661;50.786;12.728;2022-10-26T02:27:15;7.20;99.90
5276;DHT22;2661;50.786;12.728;2022-10-26T02:29:43;7.30;99.90
5276;DHT22;2661;50.786;12.728;2022-10-26T02:32:10;7.30;99.90
5276;DHT22;2661;50.786;12.728;2022-10-26T02:34:37;7.20;99.90
5276;DHT22;2661;50.786;12.728;2022-10-26T02:37:04;7.30;99.90
5276;DHT22;2661;50.786;12.728;2022-10-26T02:39:33;7.30;99.90
5276;DHT22;2661;50.786;12.728;2022-10-26T02:42:02;7.40;99.90
5276;DHT22;2661;50.786;12.728;2022-10-26T02:44:31;7.40;99.90
5276;DHT22;2661;50.786;12.728;2022-10-26T02:46:58;7.50;99.90
5276;DHT22;2661;50.786;12.728;2022-10-26T02:49:25;7.40;99.90
5276;DHT22;2661;50.786;12.728;2022-10-26T02:56:55;7.20;99.90
5276;DHT22;2661;50.786;12.728;2022-10-26T02:59:23;7.20;99.90
5276;DHT22;2661;50.786;12.728;2022-10-26T03:01:51;7.10;99.90
5276;DHT22;2661;50.786;12.728;2022-10-26T03:04:18;7.20;99.90
5276;DHT22;2661;50.786;12.728;2022-10-26T03:06:51;7.20;99.90
5276;DHT22;2661;50.786;12.728;2022-10-26T03:09:18;7.30;99.90
5276;DHT22;2661;50.786;12.728;2022-10-26T03:11:48;7.40;99.90
5276;DHT22;2661;50.786;12.728;2022-10-26T03:14:15;7.40;99.90
5276;DHT22;2661;50.786;12.728;2022-10-26T03:16:42;7.50;99.90
5276;DHT22;2661;50.786;12.728;2022-10-26T03:19:08;7.50;99.90
5276;DHT22;2661;50.786;12.728;2022-10-26T03:21:35;7.50;99.90
5276;DHT22;2661;50.786;12.728;2022-10-26T03:24:01;7.50;96.30
5276;DHT22;2661;50.786;12.728;2022-10-26T03:26:28;7.50;99.90
5276;DHT22;2661;50.786;12.728;2022-10-26T03:28:54;7.50;99.90
5276;DHT22;2661;50.786;12.728;2022-10-26T03:31:21;7.50;99.90
5276;DHT22;2661;50.786;12.728;2022-10-26T03:33:48;7.50;99.90
5276;DHT22;2661;50.786;12.728;2022-10-26T03:36:14;7.50;99.90
5276;DHT22;2661;50.786;12.728;2022-10-26T03:38:41;7.50;99.90
5276;DHT22;2661;50.786;12.728;2022-10-26T03:41:07;7.60;99.90
5276;DHT22;2661;50.786;12.728;2022-10-26T03:43:34;7.60;99.90
5276;DHT22;2661;50.786;12.728;2022-10-26T03:46:00;7.60;99.90
5276;DHT22;2661;50.786;12.728;2022-10-26T03:48:27;7.80;99.90
5276;DHT22;2661;50.786;12.728;2022-10-26T03:50:56;7.80;99.90
5276;DHT22;2661;50.786;12.728;2022-10-26T03:53:23;7.80;99.90
5276;DHT22;2661;50.786;12.728;2022-10-26T03:55:49;7.80;98.90
5276;DHT22;2661;50.786;12.728;2022-10-26T03:58:16;7.70;99.90
5276;DHT22;2661;50.786;12.728;2022-10-26T04:00:43;7.70;99.90
5276;DHT22;2661;50.786;12.728;2022-10-26T04:03:09;7.60;99.90
5276;DHT22;2661;50.786;12.728;2022-10-26T04:05:36;7.60;99.90
5276;DHT22;2661;50.786;12.728;2022-10-26T04:08:02;7.60;99.90
5276;DHT22;2661;50.786;12.728;2022-10-26T04:10:29;7.60;99.90
5276;DHT22;2661;50.786;12.728;2022-10-26T04:12:56;7.60;99.90
5276;DHT22;2661;50.786;12.728;2022-10-26T04:15:24;7.60;99.90
5276;DHT22;2661;50.786;12.728;2022-10-26T04:17:57;7.60;99.90
5276;DHT22;2661;50.786;12.728;2022-10-26T04:20:24;7.60;99.90
5276;DHT22;2661;50.786;12.728;2022-10-26T04:23:01;7.60;99.90
5276;DHT22;2661;50.786;12.728;2022-10-26T04:25:28;7.60;99.90
5276;DHT22;2661;50.786;12.728;2022-10-26T04:27:59;7.50;99.90
5276;DHT22;2661;50.786;12.728;2022-10-26T04:30:26;7.50;99.90
5276;DHT22;2661;50.786;12.728;2022-10-26T04:32:53;7.50;99.90
5276;DHT22;2661;50.786;12.728;2022-10-26T04:35:19;7.60;99.90
5276;DHT22;2661;50.786;12.728;2022-10-26T04:37:46;7.60;99.90
5276;DHT22;2661;50.786;12.728;2022-10-26T04:40:12;7.60;99.90
5276;DHT22;2661;50.786;12.728;2022-10-26T04:42:42;7.60;99.90
5276;DHT22;2661;50.786;12.728;2022-10-26T04:45:09;7.50;99.90
5276;DHT22;2661;50.786;12.728;2022-10-26T04:47:36;7.60;99.90
5276;DHT22;2661;50.786;12.728;2022-10-26T04:50:03;7.50;99.90
5276;DHT22;2661;50.786;12.728;2022-10-26T04:52:30;7.50;99.90
5276;DHT22;2661;50.786;12.728;2022-10-26T04:54:57;7.50;99.90
5276;DHT22;2661;50.786;12.728;2022-10-26T04:57:23;7.50;99.90
5276;DHT22;2661;50.786;12.728;2022-10-26T04:59:50;7.50;99.90
5276;DHT22;2661;50.786;12.728;2022-10-26T05:02:16;7.50;99.90
5276;DHT22;2661;50.786;12.728;2022-10-26T05:04:43;7.50;99.90
5276;DHT22;2661;50.786;12.728;2022-10-26T05:07:10;7.50;99.90
5276;DHT22;2661;50.786;12.728;2022-10-26T05:09:36;7.50;99.90
5276;DHT22;2661;50.786;12.728;2022-10-26T05:12:03;7.50;99.90
5276;DHT22;2661;50.786;12.728;2022-10-26T05:14:30;7.50;99.90
5276;DHT22;2661;50.786;12.728;2022-10-26T05:16:56;7.50;99.90
5276;DHT22;2661;50.786;12.728;2022-10-26T05:19:23;7.60;99.90
5276;DHT22;2661;50.786;12.728;2022-10-26T05:21:49;7.50;99.90
5276;DHT22;2661;50.786;12.728;2022-10-26T05:24:21;7.50;99.90
5276;DHT22;2661;50.786;12.728;2022-10-26T05:26:48;7.50;99.90
5276;DHT22;2661;50.786;12.728;2022-10-26T05:29:14;7.50;99.90
5276;DHT22;2661;50.786;12.728;2022-10-26T05:31:41;7.50;99.90
5276;DHT22;2661;50.786;12.728;2022-10-26T05:34:07;7.50;99.90
5276;DHT22;2661;50.786;12.728;2022-10-26T05:36:34;7.60;99.90
5276;DHT22;2661;50.786;12.728;2022-10-26T05:39:00;7.60;99.90
5276;DHT22;2661;50.786;12.728;2022-10-26T05:41:27;7.50;99.90
5276;DHT22;2661;50.786;12.728;2022-10-26T05:43:53;7.60;99.90
5276;DHT22;2661;50.786;12.728;2022-10-26T05:46:20;7.60;99.90
5276;DHT22;2661;50.786;12.728;2022-10-26T05:48:46;7.60;99.90
5276;DHT22;2661;50.786;12.728;2022-10-26T05:51:13;7.60;99.90
5276;DHT22;2661;50.786;12.728;2022-10-26T05:53:40;7.60;99.90
5276;DHT22;2661;50.786;12.728;2022-10-26T05:56:17;7.70;99.90
5276;DHT22;2661;50.786;12.728;2022-10-26T05:58:45;7.70;99.90
5276;DHT22;2661;50.786;12.728;2022-10-26T06:03:58;7.70;99.90
5276;DHT22;2661;50.786;12.728;2022-10-26T06:06:29;7.70;99.90
5276;DHT22;2661;50.786;12.728;2022-10-26T06:08:58;7.60;99.90
5276;DHT22;2661;50.786;12.728;2022-10-26T06:11:25;7.70;99.90
5276;DHT22;2661;50.786;12.728;2022-10-26T06:13:52;7.70;99.90
5276;DHT22;2661;50.786;12.728;2022-10-26T06:19:11;7.80;99.90
5276;DHT22;2661;50.786;12.728;2022-10-26T06:24:07;8.00;99.90
5276;DHT22;2661;50.786;12.728;2022-10-26T06:32:06;8.10;99.90
5276;DHT22;2661;50.786;12.728;2022-10-26T06:34:34;8.20;99.90
5276;DHT22;2661;50.786;12.728;2022-10-26T06:37:01;8.30;99.90
5276;DHT22;2661;50.786;12.728;2022-10-26T06:39:30;8.30;99.90
5276;DHT22;2661;50.786;12.728;2022-10-26T06:41:57;8.30;99.90
5276;DHT22;2661;50.786;12.728;2022-10-26T06:44:24;8.40;99.90
5276;DHT22;2661;50.786;12.728;2022-10-26T06:52:15;8.50;99.90
5276;DHT22;2661;50.786;12.728;2022-10-26T06:54:47;8.60;99.90
5276;DHT22;2661;50.786;12.728;2022-10-26T06:57:18;8.60;99.90
5276;DHT22;2661;50.786;12.728;2022-10-26T06:59:58;8.70;99.90
5276;DHT22;2661;50.786;12.728;2022-10-26T07:02:26;8.80;99.90
5276;DHT22;2661;50.786;12.728;2022-10-26T07:04:53;8.80;99.90
5276;DHT22;2661;50.786;12.728;2022-10-26T07:07:22;8.90;99.90
5276;DHT22;2661;50.786;12.728;2022-10-26T07:09:50;8.90;99.90
5276;DHT22;2661;50.786;12.728;2022-10-26T07:12:16;9.00;99.90
5276;DHT22;2661;50.786;12.728;2022-10-26T07:14:43;9.10;99.90
5276;DHT22;2661;50.786;12.728;2022-10-26T07:17:10;9.10;99.90
5276;DHT22;2661;50.786;12.728;2022-10-26T07:19:36;9.10;99.90
5276;DHT22;2661;50.786;12.728;2022-10-26T07:22:03;9.10;99.90
5276;DHT22;2661;50.786;12.728;2022-10-26T07:24:30;9.20;99.90
5276;DHT22;2661;50.786;12.728;2022-10-26T07:26:57;9.30;99.90
5276;DHT22;2661;50.786;12.728;2022-10-26T07:29:24;9.30;99.90
5276;DHT22;2661;50.786;12.728;2022-10-26T07:31:51;9.40;99.90
5276;DHT22;2661;50.786;12.728;2022-10-26T07:34:19;9.60;99.90
5276;DHT22;2661;50.786;12.728;2022-10-26T07:36:45;9.70;99.90
5276;DHT22;2661;50.786;12.728;2022-10-26T07:39:12;9.80;99.90
5276;DHT22;2661;50.786;12.728;2022-10-26T07:41:38;9.90;99.90
5276;DHT22;2661;50.786;12.728;2022-10-26T07:44:05;10.10;99.90
5276;DHT22;2661;50.786;12.728;2022-10-26T07:46:32;10.20;99.90
5276;DHT22;2661;50.786;12.728;2022-10-26T07:48:58;10.40;99.90
5276;DHT22;2661;50.786;12.728;2022-10-26T07:51:25;10.50;99.90
5276;DHT22;2661;50.786;12.728;2022-10-26T07:53:51;10.60;99.90
5276;DHT22;2661;50.786;12.728;2022-10-26T07:56:18;10.70;99.90
5276;DHT22;2661;50.786;12.728;2022-10-26T07:58:44;10.80;99.90
5276;DHT22;2661;50.786;12.728;2022-10-26T08:01:12;10.90;99.90
5276;DHT22;2661;50.786;12.728;2022-10-26T08:03:39;11.10;99.90
5276;DHT22;2661;50.786;12.728;2022-10-26T08:06:06;11.20;99.90
5276;DHT22;2661;50.786;12.728;2022-10-26T08:08:35;11.30;99.90
5276;DHT22;2661;50.786;12.728;2022-10-26T08:11:02;11.40;99.90
5276;DHT22;2661;50.786;12.728;2022-10-26T08:13:34;11.50;99.90
5276;DHT22;2661;50.786;12.728;2022-10-26T08:16:02;11.70;99.90
5276;DHT22;2661;50.786;12.728;2022-10-26T08:18:29;11.70;99.90
5276;DHT22;2661;50.786;12.728;2022-10-26T08:21:00;11.90;99.90
5276;DHT22;2661;50.786;12.728;2022-10-26T08:23:37;12.00;99.90
5276;DHT22;2661;50.786;12.728;2022-10-26T08:26:04;12.10;99.90
5276;DHT22;2661;50.786;12.728;2022-10-26T08:28:30;12.30;99.90
5276;DHT22;2661;50.786;12.728;2022-10-26T08:30:57;12.40;99.90
5276;DHT22;2661;50.786;12.728;2022-10-26T08:33:24;12.50;99.90
5276;DHT22;2661;50.786;12.728;2022-10-26T08:36:00;12.60;99.90
5276;DHT22;2661;50.786;12.728;2022-10-26T08:38:27;12.70;99.90
5276;DHT22;2661;50.786;12.728;2022-10-26T08:40:55;12.80;99.90
5276;DHT22;2661;50.786;12.728;2022-10-26T08:46:22;13.00;99.90
5276;DHT22;2661;50.786;12.728;2022-10-26T08:49:01;13.10;99.90
5276;DHT22;2661;50.786;12.728;2022-10-26T08:51:33;13.20;99.90
5276;DHT22;2661;50.786;12.728;2022-10-26T08:54:11;13.20;99.90
5276;DHT22;2661;50.786;12.728;2022-10-26T08:56:44;13.30;99.90
5276;DHT22;2661;50.786;12.728;2022-10-26T09:01:42;13.50;99.90
5276;DHT22;2661;50.786;12.728;2022-10-26T09:04:10;13.60;99.90
5276;DHT22;2661;50.786;12.728;2022-10-26T09:12:01;13.80;99.90
5276;DHT22;2661;50.786;12.728;2022-10-26T09:14:46;13.80;99.90
5276;DHT22;2661;50.786;12.728;2022-10-26T09:22:37;14.00;99.90
5276;DHT22;2661;50.786;12.728;2022-10-26T09:25:15;14.00;99.90
5276;DHT22;2661;50.786;12.728;2022-10-26T09:27:43;14.00;99.90
5276;DHT22;2661;50.786;12.728;2022-10-26T09:30:15;14.00;99.90
5276;DHT22;2661;50.786;12.728;2022-10-26T09:32:43;14.10;98.60
5276;DHT22;2661;50.786;12.728;2022-10-26T09:35:18;14.00;99.90
5276;DHT22;2661;50.786;12.728;2022-10-26T09:37:47;14.10;99.90
5276;DHT22;2661;50.786;12.728;2022-10-26T09:40:35;14.10;67.10
5276;DHT22;2661;50.786;12.728;2022-10-26T09:43:04;14.10;99.90
5276;DHT22;2661;50.786;12.728;2022-10-26T09:45:33;14.00;99.90
5276;DHT22;2661;50.786;12.728;2022-10-26T09:50:46;14.10;99.90
5276;DHT22;2661;50.786;12.728;2022-10-26T09:53:14;14.10;99.90
5276;DHT22;2661;50.786;12.728;2022-10-26T09:55:41;14.10;99.90
5276;DHT22;2661;50.786;12.728;2022-10-26T09:58:11;14.20;99.90
5276;DHT22;2661;50.786;12.728;2022-10-26T10:00:39;14.30;99.90
5276;DHT22;2661;50.786;12.728;2022-10-26T10:03:18;14.30;99.90
5276;DHT22;2661;50.786;12.728;2022-10-26T10:05:45;14.50;99.90
5276;DHT22;2661;50.786;12.728;2022-10-26T10:13:19;14.80;99.90
5276;DHT22;2661;50.786;12.728;2022-10-26T10:15:50;14.90;99.90
5276;DHT22;2661;50.786;12.728;2022-10-26T10:18:19;14.90;99.90
5276;DHT22;2661;50.786;12.728;2022-10-26T10:20:53;15.00;99.90
5276;DHT22;2661;50.786;12.728;2022-10-26T10:23:25;15.00;99.90
5276;DHT22;2661;50.786;12.728;2022-10-26T10:26:03;15.00;99.90
5276;DHT22;2661;50.786;12.728;2022-10-26T10:28:30;15.00;99.90
5276;DHT22;2661;50.786;12.728;2022-10-26T10:30:57;14.90;99.90
5276;DHT22;2661;50.786;12.728;2022-10-26T10:33:31;15.00;99.90
5276;DHT22;2661;50.786;12.728;2022-10-26T10:35:58;15.00;99.90
5276;DHT22;2661;50.786;12.728;2022-10-26T10:38:24;15.00;99.90
5276;DHT22;2661;50.786;12.728;2022-10-26T10:40:55;15.00;99.90
5276;DHT22;2661;50.786;12.728;2022-10-26T10:43:23;15.10;99.90
5276;DHT22;2661;50.786;12.728;2022-10-26T10:45:51;15.10;99.90
5276;DHT22;2661;50.786;12.728;2022-10-26T10:48:28;15.10;99.90
5276;DHT22;2661;50.786;12.728;2022-10-26T10:50:58;15.10;99.90
5276;DHT22;2661;50.786;12.728;2022-10-26T10:53:29;15.20;99.90
5276;DHT22;2661;50.786;12.728;2022-10-26T10:56:00;15.20;99.90
5276;DHT22;2661;50.786;12.728;2022-10-26T10:58:36;15.20;99.90
5276;DHT22;2661;50.786;12.728;2022-10-26T11:01:08;15.30;99.90
5276;DHT22;2661;50.786;12.728;2022-10-26T11:06:21;15.30;99.90
5276;DHT22;2661;50.786;12.728;2022-10-26T11:09:02;15.40;99.90
5276;DHT22;2661;50.786;12.728;2022-10-26T11:11:37;15.50;99.90
5276;DHT22;2661;50.786;12.728;2022-10-26T11:14:13;15.50;99.90
5276;DHT22;2661;50.786;12.728;2022-10-26T11:16:42;15.60;99.90
5276;DHT22;2661;50.786;12.728;2022-10-26T11:19:21;15.60;99.90
5276;DHT22;2661;50.786;12.728;2022-10-26T11:21:53;15.50;99.90
5276;DHT22;2661;50.786;12.728;2022-10-26T11:26:51;15.50;99.90
5276;DHT22;2661;50.786;12.728;2022-10-26T11:32:00;15.40;99.90
5276;DHT22;2661;50.786;12.728;2022-10-26T11:34:30;15.40;99.90
5276;DHT22;2661;50.786;12.728;2022-10-26T11:37:02;15.40;99.90
5276;DHT22;2661;50.786;12.728;2022-10-26T11:40:15;15.40;99.90
5276;DHT22;2661;50.786;12.728;2022-10-26T11:42:23;15.50;99.90
5276;DHT22;2661;50.786;12.728;2022-10-26T11:44:56;15.50;99.90
5276;DHT22;2661;50.786;12.728;2022-10-26T11:47:27;15.60;99.90
5276;DHT22;2661;50.786;12.728;2022-10-26T11:52:50;15.80;99.90
5276;DHT22;2661;50.786;12.728;2022-10-26T11:55:18;15.90;99.90
5276;DHT22;2661;50.786;12.728;2022-10-26T11:57:45;16.00;99.90
5276;DHT22;2661;50.786;12.728;2022-10-26T12:00:14;16.00;99.90
5276;DHT22;2661;50.786;12.728;2022-10-26T12:02:45;15.90;99.90
5276;DHT22;2661;50.786;12.728;2022-10-26T12:05:18;15.90;99.90
5276;DHT22;2661;50.786;12.728;2022-10-26T12:08:04;15.90;99.90
5276;DHT22;2661;50.786;12.728;2022-10-26T12:10:31;15.90;99.90
5276;DHT22;2661;50.786;12.728;2022-10-26T12:13:00;15.80;99.90
5276;DHT22;2661;50.786;12.728;2022-10-26T12:15:31;15.70;99.90
5276;DHT22;2661;50.786;12.728;2022-10-26T12:21:29;15.70;99.90
5276;DHT22;2661;50.786;12.728;2022-10-26T12:23:57;15.70;99.90
5276;DHT22;2661;50.786;12.728;2022-10-26T12:33:56;15.90;99.90
5276;DHT22;2661;50.786;12.728;2022-10-26T12:39:26;16.00;99.90
5276;DHT22;2661;50.786;12.728;2022-10-26T12:44:39;16.20;99.90
5276;DHT22;2661;50.786;12.728;2022-10-26T12:47:07;16.20;99.90
5276;DHT22;2661;50.786;12.728;2022-10-26T12:52:20;16.20;99.90
5276;DHT22;2661;50.786;12.728;2022-10-26T12:54:57;16.10;99.90
5276;DHT22;2661;50.786;12.728;2022-10-26T12:57:34;16.00;99.90
5276;DHT22;2661;50.786;12.728;2022-10-26T13:00:10;15.90;99.90
5276;DHT22;2661;50.786;12.728;2022-10-26T13:02:42;15.70;99.90
5276;DHT22;2661;50.786;12.728;2022-10-26T13:07:52;15.50;99.90
5276;DHT22;2661;50.786;12.728;2022-10-26T13:10:26;15.40;99.90
5276;DHT22;2661;50.786;12.728;2022-10-26T13:15:21;15.20;99.90
5276;DHT22;2661;50.786;12.728;2022-10-26T13:17:55;15.20;99.90
5276;DHT22;2661;50.786;12.728;2022-10-26T13:20:23;15.10;99.90
5276;DHT22;2661;50.786;12.728;2022-10-26T13:22:50;15.10;99.90
5276;DHT22;2661;50.786;12.728;2022-10-26T13:25:36;15.10;99.90
5276;DHT22;2661;50.786;12.728;2022-10-26T13:28:06;15.10;99.90
5276;DHT22;2661;50.786;12.728;2022-10-26T13:32:59;15.10;99.90
5276;DHT22;2661;50.786;12.728;2022-10-26T13:35:27;15.10;99.90
5276;DHT22;2661;50.786;12.728;2022-10-26T13:37:54;15.20;99.90
5276;DHT22;2661;50.786;12.728;2022-10-26T13:40:22;15.20;99.90
5276;DHT22;2661;50.786;12.728;2022-10-26T13:42:53;15.20;99.90
5276;DHT22;2661;50.786;12.728;2022-10-26T13:45:25;15.10;99.90
5276;DHT22;2661;50.786;12.728;2022-10-26T13:48:02;15.10;99.90
5276;DHT22;2661;50.786;12.728;2022-10-26T13:51:17;15.00;99.90
5276;DHT22;2661;50.786;12.728;2022-10-26T13:53:37;15.00;99.90
5276;DHT22;2661;50.786;12.728;2022-10-26T14:01:22;15.10;99.90
5276;DHT22;2661;50.786;12.728;2022-10-26T14:03:50;15.10;99.90
5276;DHT22;2661;50.786;12.728;2022-10-26T14:06:25;15.10;99.90
5276;DHT22;2661;50.786;12.728;2022-10-26T14:08:54;15.10;99.90
5276;DHT22;2661;50.786;12.728;2022-10-26T14:11:24;15.10;99.90
5276;DHT22;2661;50.786;12.728;2022-10-26T14:13:53;15.20;99.90
5276;DHT22;2661;50.786;12.728;2022-10-26T14:16:19;15.20;99.90
5276;DHT22;2661;50.786;12.728;2022-10-26T14:18:49;15.20;99.90
5276;DHT22;2661;50.786;12.728;2022-10-26T14:21:17;15.20;99.90
5276;DHT22;2661;50.786;12.728;2022-10-26T14:23:52;15.20;99.90
5276;DHT22;2661;50.786;12.728;2022-10-26T14:26:28;15.20;99.90
5276;DHT22;2661;50.786;12.728;2022-10-26T14:28:56;15.20;99.90
5276;DHT22;2661;50.786;12.728;2022-10-26T14:31:27;15.30;99.90
5276;DHT22;2661;50.786;12.728;2022-10-26T14:33:55;15.30;99.90
5276;DHT22;2661;50.786;12.728;2022-10-26T14:36:23;15.40;99.90
5276;DHT22;2661;50.786;12.728;2022-10-26T14:38:52;15.40;99.90
5276;DHT22;2661;50.786;12.728;2022-10-26T14:41:20;15.50;99.90
5276;DHT22;2661;50.786;12.728;2022-10-26T14:43:47;15.40;99.90
5276;DHT22;2661;50.786;12.728;2022-10-26T14:46:14;15.40;99.90
5276;DHT22;2661;50.786;12.728;2022-10-26T14:51:18;15.30;99.90
5276;DHT22;2661;50.786;12.728;2022-10-26T14:53:47;15.20;99.90
5276;DHT22;2661;50.786;12.728;2022-10-26T14:56:32;15.10;99.90
5276;DHT22;2661;50.786;12.728;2022-10-26T15:04:26;15.00;99.90
5276;DHT22;2661;50.786;12.728;2022-10-26T15:06:59;14.90;99.90
5276;DHT22;2661;50.786;12.728;2022-10-26T15:09:28;14.90;99.90
5276;DHT22;2661;50.786;12.728;2022-10-26T15:11:54;14.90;99.90
5276;DHT22;2661;50.786;12.728;2022-10-26T15:14:21;14.90;99.90
5276;DHT22;2661;50.786;12.728;2022-10-26T15:16:54;14.90;99.90
5276;DHT22;2661;50.786;12.728;2022-10-26T15:19:22;14.80;99.90
5276;DHT22;2661;50.786;12.728;2022-10-26T15:21:49;14.70;99.90
5276;DHT22;2661;50.786;12.728;2022-10-26T15:26:53;14.60;99.90
5276;DHT22;2661;50.786;12.728;2022-10-26T15:32:03;14.50;99.90
5276;DHT22;2661;50.786;12.728;2022-10-26T15:34:35;14.40;99.90
5276;DHT22;2661;50.786;12.728;2022-10-26T15:37:01;14.30;99.90
5276;DHT22;2661;50.786;12.728;2022-10-26T15:39:28;14.30;99.90
5276;DHT22;2661;50.786;12.728;2022-10-26T15:41:55;14.20;99.90
5276;DHT22;2661;50.786;12.728;2022-10-26T15:44:21;14.10;99.90
5276;DHT22;2661;50.786;12.728;2022-10-26T15:46:48;14.00;99.90
5276;DHT22;2661;50.786;12.728;2022-10-26T15:49:19;14.00;99.90
5276;DHT22;2661;50.786;12.728;2022-10-26T15:51:46;14.00;99.90
5276;DHT22;2661;50.786;12.728;2022-10-26T15:54:13;13.90;99.90
5276;DHT22;2661;50.786;12.728;2022-10-26T15:56:40;13.90;99.90
5276;DHT22;2661;50.786;12.728;2022-10-26T15:59:12;13.90;99.90
5276;DHT22;2661;50.786;12.728;2022-10-26T16:01:40;13.90;99.90
5276;DHT22;2661;50.786;12.728;2022-10-26T16:04:08;13.80;99.90
5276;DHT22;2661;50.786;12.728;2022-10-26T16:06:35;13.80;99.90
5276;DHT22;2661;50.786;12.728;2022-10-26T16:09:03;13.80;99.90
5276;DHT22;2661;50.786;12.728;2022-10-26T16:11:30;13.70;99.90
5276;DHT22;2661;50.786;12.728;2022-10-26T16:13:56;13.70;99.90
5276;DHT22;2661;50.786;12.728;2022-10-26T16:16:29;13.70;99.90
5276;DHT22;2661;50.786;12.728;2022-10-26T16:18:55;13.60;99.90
5276;DHT22;2661;50.786;12.728;2022-10-26T16:21:42;13.60;99.90
5276;DHT22;2661;50.786;12.728;2022-10-26T16:24:09;13.50;99.90
5276;DHT22;2661;50.786;12.728;2022-10-26T16:26:35;13.40;99.90
5276;DHT22;2661;50.786;12.728;2022-10-26T16:29:02;13.30;99.90
5276;DHT22;2661;50.786;12.728;2022-10-26T16:31:28;13.30;99.90
5276;DHT22;2661;50.786;12.728;2022-10-26T16:33:55;13.10;99.90
5276;DHT22;2661;50.786;12.728;2022-10-26T16:36:28;13.10;99.90
5276;DHT22;2661;50.786;12.728;2022-10-26T16:38:55;13.00;99.90
5276;DHT22;2661;50.786;12.728;2022-10-26T16:41:21;12.90;99.90
5276;DHT22;2661;50.786;12.728;2022-10-26T16:43:48;12.90;99.90
5276;DHT22;2661;50.786;12.728;2022-10-26T16:46:16;12.80;99.90
5276;DHT22;2661;50.786;12.728;2022-10-26T16:48:43;12.80;99.90
5276;DHT22;2661;50.786;12.728;2022-10-26T16:51:14;12.70;99.90
5276;DHT22;2661;50.786;12.728;2022-10-26T16:53:41;12.70;99.90
5276;DHT22;2661;50.786;12.728;2022-10-26T16:56:09;12.60;99.90
5276;DHT22;2661;50.786;12.728;2022-10-26T16:58:36;12.60;99.90
5276;DHT22;2661;50.786;12.728;2022-10-26T17:01:03;12.60;99.90
5276;DHT22;2661;50.786;12.728;2022-10-26T17:03:31;12.50;99.90
5276;DHT22;2661;50.786;12.728;2022-10-26T17:05:58;12.50;99.90
5276;DHT22;2661;50.786;12.728;2022-10-26T17:08:26;12.40;99.90
5276;DHT22;2661;50.786;12.728;2022-10-26T17:10:53;12.40;99.90
5276;DHT22;2661;50.786;12.728;2022-10-26T17:13:20;12.30;99.90
5276;DHT22;2661;50.786;12.728;2022-10-26T17:15:47;12.30;99.90
5276;DHT22;2661;50.786;12.728;2022-10-26T17:18:13;12.20;99.90
5276;DHT22;2661;50.786;12.728;2022-10-26T17:20:47;12.20;99.90
5276;DHT22;2661;50.786;12.728;2022-10-26T17:23:13;12.20;99.90
5276;DHT22;2661;50.786;12.728;2022-10-26T17:25:40;12.20;1.00
5276;DHT22;2661;50.786;12.728;2022-10-26T17:28:07;12.10;1.00
5276;DHT22;2661;50.786;12.728;2022-10-26T17:30:33;12.00;1.00
5276;DHT22;2661;50.786;12.728;2022-10-26T17:33:01;12.00;1.00
5276;DHT22;2661;50.786;12.728;2022-10-26T17:35:28;12.00;1.00
5276;DHT22;2661;50.786;12.728;2022-10-26T17:37:54;11.90;1.00
5276;DHT22;2661;50.786;12.728;2022-10-26T17:40:21;11.90;1.00
5276;DHT22;2661;50.786;12.728;2022-10-26T17:42:48;11.80;1.00
5276;DHT22;2661;50.786;12.728;2022-10-26T17:45:14;11.80;1.00
5276;DHT22;2661;50.786;12.728;2022-10-26T17:47:41;11.80;1.00
5276;DHT22;2661;50.786;12.728;2022-10-26T17:50:08;11.70;1.00
5276;DHT22;2661;50.786;12.728;2022-10-26T17:52:34;11.70;1.00
5276;DHT22;2661;50.786;12.728;2022-10-26T17:55:01;11.60;1.00
5276;DHT22;2661;50.786;12.728;2022-10-26T17:57:28;11.60;1.00
5276;DHT22;2661;50.786;12.728;2022-10-26T17:59:55;11.60;1.00
5276;DHT22;2661;50.786;12.728;2022-10-26T18:02:21;11.60;1.00
5276;DHT22;2661;50.786;12.728;2022-10-26T18:04:48;11.60;1.00
5276;DHT22;2661;50.786;12.728;2022-10-26T18:07:15;11.50;1.00
5276;DHT22;2661;50.786;12.728;2022-10-26T18:09:41;11.50;1.00
5276;DHT22;2661;50.786;12.728;2022-10-26T18:12:08;11.40;1.00
5276;DHT22;2661;50.786;12.728;2022-10-26T18:14:36;11.40;1.00
5276;DHT22;2661;50.786;12.728;2022-10-26T18:17:02;11.30;1.00
5276;DHT22;2661;50.786;12.728;2022-10-26T18:19:29;11.30;1.00
5276;DHT22;2661;50.786;12.728;2022-10-26T18:21:55;11.30;1.00
5276;DHT22;2661;50.786;12.728;2022-10-26T18:24:22;11.30;1.00
5276;DHT22;2661;50.786;12.728;2022-10-26T18:26:49;11.20;1.00
5276;DHT22;2661;50.786;12.728;2022-10-26T18:29:15;11.10;1.00
5276;DHT22;2661;50.786;12.728;2022-10-26T18:31:42;11.10;1.00